createdAt,value
2018-02-16T00:02:08.608Z,0.90
2018-02-16T00:04:36.130Z,0.90
2018-02-16T00:07:03.641Z,0.80
2018-02-16T00:09:31.164Z,0.80
2018-02-16T00:11:59.437Z,0.70
2018-02-16T00:14:27.058Z,0.70
2018-02-16T00:16:54.611Z,0.80
2018-02-16T00:19:22.186Z,0.50
2018-02-16T00:21:49.733Z,0.50
2018-02-16T00:24:17.237Z,0.50
2018-02-16T00:26:44.765Z,0.40
2018-02-16T00:29:12.365Z,0.50
2018-02-16T00:31:39.973Z,0.40
2018-02-16T00:34:07.476Z,0.40
2018-02-16T00:36:35.002Z,0.50
2018-02-16T00:39:02.618Z,0.50
2018-02-16T00:41:30.901Z,0.50
2018-02-16T00:43:58.458Z,0.50
2018-02-16T00:46:26.023Z,0.50
2018-02-16T00:48:53.687Z,0.40
2018-02-16T00:51:21.230Z,0.40
2018-02-16T00:53:49.509Z,0.50
2018-02-16T00:56:17.025Z,0.50
2018-02-16T00:58:44.528Z,0.50
2018-02-16T01:01:12.050Z,0.60
2018-02-16T01:03:39.561Z,0.60
2018-02-16T01:06:07.097Z,0.50
2018-02-16T01:08:34.600Z,0.50
2018-02-16T01:11:02.105Z,0.60
2018-02-16T01:13:30.394Z,0.50
2018-02-16T01:15:59.405Z,0.60
2018-02-16T01:18:27.711Z,0.60
2018-02-16T01:20:56.076Z,0.60
2018-02-16T01:23:24.599Z,0.50
2018-02-16T01:25:52.369Z,0.50
2018-02-16T01:28:19.902Z,0.60
2018-02-16T01:30:47.411Z,0.60
2018-02-16T01:33:14.936Z,0.60
2018-02-16T01:35:43.269Z,0.70
2018-02-16T01:38:11.589Z,0.70
2018-02-16T01:40:39.936Z,0.60
2018-02-16T01:43:08.227Z,0.70
2018-02-16T01:45:36.505Z,0.70
2018-02-16T01:48:04.039Z,0.70
2018-02-16T01:50:31.540Z,0.70
2018-02-16T01:52:59.045Z,0.80
2018-02-16T01:55:27.384Z,0.80
2018-02-16T01:57:54.961Z,0.80
2018-02-16T02:00:22.608Z,0.80
2018-02-16T02:02:50.141Z,0.70
2018-02-16T02:05:18.429Z,0.80
2018-02-16T02:07:46.701Z,0.70
2018-02-16T02:10:14.243Z,0.70
2018-02-16T02:12:41.786Z,0.80
2018-02-16T02:15:09.324Z,0.90
2018-02-16T02:17:37.597Z,1.10
2018-02-16T02:20:05.109Z,1.10
2018-02-16T02:22:32.634Z,1.00
2018-02-16T02:25:00.133Z,1.10
2018-02-16T02:27:28.441Z,1.20
2018-02-16T02:29:56.848Z,1.20
2018-02-16T02:32:24.496Z,1.20
2018-02-16T02:34:52.058Z,1.20
2018-02-16T02:37:20.353Z,1.00
2018-02-16T02:39:48.622Z,1.00
2018-02-16T02:42:16.168Z,1.00
2018-02-16T02:44:43.683Z,1.10
2018-02-16T02:47:12.010Z,1.10
2018-02-16T02:49:39.614Z,1.10
2018-02-16T02:52:07.126Z,1.00
2018-02-16T02:54:35.411Z,0.90
2018-02-16T02:57:03.700Z,0.90
2018-02-16T02:59:32.015Z,1.00
2018-02-16T03:01:59.516Z,1.00
2018-02-16T03:04:27.085Z,1.00
2018-02-16T03:06:54.740Z,1.00
2018-02-16T03:09:23.341Z,0.90
2018-02-16T03:11:52.230Z,1.00
2018-02-16T03:14:19.764Z,1.00
2018-02-16T03:16:47.270Z,1.00
2018-02-16T03:19:14.792Z,1.00
2018-02-16T03:21:42.730Z,1.00
2018-02-16T03:24:10.273Z,1.00
2018-02-16T03:26:38.545Z,1.00
2018-02-16T03:29:06.094Z,0.90
2018-02-16T03:31:33.598Z,1.00
2018-02-16T03:34:01.097Z,1.10
2018-02-16T03:36:28.617Z,1.10
2018-02-16T03:38:56.246Z,1.00
2018-02-16T03:41:23.785Z,1.00
2018-02-16T03:43:52.079Z,1.00
2018-02-16T03:46:20.394Z,0.90
2018-02-16T03:48:47.930Z,0.90
2018-02-16T03:51:16.223Z,0.90
2018-02-16T03:53:44.493Z,0.90
2018-02-16T03:56:12.021Z,0.90
2018-02-16T03:58:39.545Z,1.00
2018-02-16T04:01:07.081Z,0.90
2018-02-16T04:03:34.593Z,0.90
2018-02-16T04:06:02.884Z,0.90
2018-02-16T04:08:30.409Z,0.90
2018-02-16T04:10:57.925Z,0.90
2018-02-16T04:13:26.208Z,0.80
2018-02-16T04:15:53.777Z,0.80
2018-02-16T04:18:21.680Z,0.70
2018-02-16T04:20:49.232Z,0.50
2018-02-16T04:23:16.781Z,0.30
2018-02-16T04:25:44.368Z,0.30
2018-02-16T04:28:11.889Z,0.40
2018-02-16T04:30:39.401Z,0.40
2018-02-16T04:33:06.925Z,0.50
2018-02-16T04:35:34.455Z,0.50
2018-02-16T04:38:01.968Z,0.50
2018-02-16T04:40:29.477Z,0.60
2018-02-16T04:42:57.765Z,0.60
2018-02-16T04:45:25.317Z,0.50
2018-02-16T04:47:52.884Z,0.50
2018-02-16T04:50:20.435Z,0.60
2018-02-16T04:52:48.010Z,0.40
2018-02-16T04:55:15.573Z,0.40
2018-02-16T04:57:43.841Z,0.50
2018-02-16T05:00:11.368Z,0.50
2018-02-16T05:02:38.888Z,0.40
2018-02-16T05:05:07.201Z,0.30
2018-02-16T05:07:34.704Z,0.30
2018-02-16T05:10:02.255Z,0.50
2018-02-16T05:12:29.774Z,0.50
2018-02-16T05:14:57.306Z,0.50
2018-02-16T05:17:24.921Z,0.50
2018-02-16T05:19:53.977Z,0.50
2018-02-16T05:22:21.563Z,0.50
2018-02-16T05:24:49.236Z,0.40
2018-02-16T05:27:16.883Z,0.40
2018-02-16T05:29:44.390Z,0.40
2018-02-16T05:32:11.918Z,0.30
2018-02-16T05:34:40.188Z,0.20
2018-02-16T05:37:07.744Z,0.20
2018-02-16T05:39:35.249Z,0.20
2018-02-16T05:42:03.539Z,0.40
2018-02-16T05:44:31.847Z,0.50
2018-02-16T05:46:59.381Z,0.50
2018-02-16T05:49:26.885Z,0.60
2018-02-16T05:51:54.420Z,0.60
2018-02-16T05:54:22.898Z,0.60
2018-02-16T05:56:50.544Z,0.60
2018-02-16T05:59:18.095Z,0.60
2018-02-16T06:01:45.697Z,0.60
2018-02-16T06:04:13.191Z,0.60
2018-02-16T06:06:40.700Z,0.60
2018-02-16T06:09:09.090Z,0.60
2018-02-16T06:11:36.618Z,0.60
2018-02-16T06:14:04.157Z,0.50
2018-02-16T06:16:31.665Z,0.50
2018-02-16T06:18:59.196Z,0.50
2018-02-16T06:21:26.765Z,0.50
2018-02-16T06:23:54.492Z,0.50
2018-02-16T06:26:22.021Z,0.60
2018-02-16T06:28:49.707Z,0.60
2018-02-16T06:31:17.443Z,0.70
2018-02-16T06:33:44.984Z,0.70
2018-02-16T06:36:12.490Z,0.70
2018-02-16T06:38:40.830Z,0.60
2018-02-16T06:41:08.368Z,0.60
2018-02-16T06:43:35.888Z,0.60
2018-02-16T06:46:03.408Z,0.60
2018-02-16T06:48:30.913Z,0.60
2018-02-16T06:50:58.427Z,0.60
2018-02-16T06:53:26.692Z,0.50
2018-02-16T06:55:54.236Z,0.50
2018-02-16T06:58:21.808Z,0.40
2018-02-16T07:00:50.174Z,0.40
2018-02-16T07:03:17.686Z,0.40
2018-02-16T07:05:45.257Z,0.50
2018-02-16T07:08:12.719Z,0.60
2018-02-16T07:10:40.265Z,0.60
2018-02-16T07:13:07.771Z,0.60
2018-02-16T07:15:36.082Z,0.80
2018-02-16T07:18:03.673Z,0.70
2018-02-16T07:20:31.989Z,1.10
2018-02-16T07:22:59.500Z,1.10
2018-02-16T07:25:27.101Z,1.20
2018-02-16T07:27:55.397Z,1.50
2018-02-16T07:30:23.718Z,1.70
2018-02-16T07:32:51.335Z,1.70
2018-02-16T07:35:18.846Z,1.90
2018-02-16T07:37:46.360Z,1.90
2018-02-16T07:40:14.626Z,2.30
2018-02-16T07:42:42.149Z,2.20
2018-02-16T07:45:10.473Z,3.00
2018-02-16T07:47:38.004Z,2.90
2018-02-16T07:50:05.501Z,3.20
2018-02-16T07:52:33.757Z,3.50
2018-02-16T07:55:01.264Z,3.50
2018-02-16T07:57:28.786Z,3.40
2018-02-16T07:59:56.316Z,3.30
2018-02-16T08:02:23.821Z,3.20
2018-02-16T08:04:51.395Z,3.20
2018-02-16T08:07:18.910Z,3.20
2018-02-16T08:09:47.216Z,3.00
2018-02-16T08:12:14.704Z,3.00
2018-02-16T08:14:42.252Z,3.00
2018-02-16T08:17:09.749Z,3.10
2018-02-16T08:19:37.280Z,3.10
2018-02-16T08:22:05.556Z,3.10
2018-02-16T08:24:33.116Z,3.10
2018-02-16T08:27:00.613Z,3.00
2018-02-16T08:29:28.868Z,3.20
2018-02-16T08:31:56.485Z,3.20
2018-02-16T08:34:23.977Z,3.60
2018-02-16T08:36:51.533Z,4.00
2018-02-16T08:39:19.073Z,4.10
2018-02-16T08:41:47.346Z,4.00
2018-02-16T08:44:14.838Z,4.00
2018-02-16T08:46:43.112Z,4.30
2018-02-16T08:49:10.603Z,4.30
2018-02-16T08:51:38.886Z,4.50
2018-02-16T08:54:07.162Z,4.30
2018-02-16T08:56:34.712Z,4.30
2018-02-16T08:59:02.272Z,4.70
2018-02-16T09:01:29.781Z,5.70
2018-02-16T09:03:57.273Z,6.30
2018-02-16T09:06:25.561Z,6.10
2018-02-16T09:08:53.860Z,7.10
2018-02-16T09:11:21.364Z,7.10
2018-02-16T09:13:48.878Z,7.90
2018-02-16T09:16:17.145Z,9.00
2018-02-16T09:18:44.660Z,9.00
2018-02-16T09:21:12.148Z,9.40
2018-02-16T09:23:39.678Z,10.10
2018-02-16T09:26:07.941Z,11.20
2018-02-16T09:28:35.457Z,11.10
2018-02-16T09:31:02.957Z,11.20
2018-02-16T09:33:30.485Z,11.40
2018-02-16T09:35:58.747Z,11.80
2018-02-16T09:38:26.247Z,11.70
2018-02-16T09:40:54.550Z,11.60
2018-02-16T09:43:22.053Z,11.50
2018-02-16T09:45:50.148Z,12.00
2018-02-16T09:48:17.639Z,11.90
2018-02-16T09:50:45.148Z,12.10
2018-02-16T09:53:12.636Z,11.30
2018-02-16T09:55:40.156Z,11.20
2018-02-16T09:58:07.649Z,11.20
2018-02-16T10:00:35.920Z,11.40
2018-02-16T10:03:03.413Z,11.40
2018-02-16T10:05:31.688Z,10.80
2018-02-16T10:07:59.986Z,10.50
2018-02-16T10:10:28.264Z,10.60
2018-02-16T10:12:56.529Z,10.40
2018-02-16T10:15:24.058Z,10.30
2018-02-16T10:17:51.545Z,9.80
2018-02-16T10:20:19.023Z,9.50
2018-02-16T10:22:46.533Z,9.20
2018-02-16T10:25:14.779Z,8.90
2018-02-16T10:27:42.279Z,8.90
2018-02-16T10:30:09.770Z,8.70
2018-02-16T10:32:38.044Z,8.80
2018-02-16T10:35:05.528Z,8.80
2018-02-16T10:37:33.834Z,8.80
2018-02-16T10:40:01.326Z,8.80
2018-02-16T10:42:28.843Z,8.90
2018-02-16T10:44:56.323Z,8.90
2018-02-16T10:47:24.584Z,8.50
2018-02-16T10:49:52.119Z,8.50
2018-02-16T10:52:19.612Z,8.30
2018-02-16T10:54:47.108Z,8.00
2018-02-16T10:57:14.597Z,7.80
2018-02-16T10:59:42.927Z,7.80
2018-02-16T11:02:16.186Z,7.80
2018-02-16T11:04:50.265Z,7.70
2018-02-16T11:07:23.518Z,7.70
2018-02-16T11:09:51.790Z,7.60
2018-02-16T11:12:19.272Z,7.60
2018-02-16T11:14:46.777Z,7.80
2018-02-16T11:17:14.265Z,7.90
2018-02-16T11:19:41.768Z,8.00
2018-02-16T11:22:09.254Z,8.00
2018-02-16T11:24:36.757Z,8.00
2018-02-16T11:27:04.243Z,8.00
2018-02-16T11:29:31.893Z,8.00
2018-02-16T11:32:00.153Z,7.80
2018-02-16T11:34:27.642Z,7.80
2018-02-16T11:36:55.920Z,8.00
2018-02-16T11:39:23.423Z,8.00
2018-02-16T11:41:50.988Z,8.00
2018-02-16T11:44:18.477Z,8.10
2018-02-16T11:46:45.981Z,8.20
2018-02-16T11:49:13.479Z,8.40
2018-02-16T11:51:41.757Z,8.60
2018-02-16T11:54:10.744Z,8.40
2018-02-16T11:56:38.245Z,8.40
2018-02-16T11:59:06.492Z,8.50
2018-02-16T12:01:33.992Z,8.50
2018-02-16T12:04:01.480Z,8.30
2018-02-16T12:06:29.755Z,8.30
2018-02-16T12:08:57.237Z,8.30
2018-02-16T12:11:25.524Z,8.50
2018-02-16T12:13:53.794Z,8.50
2018-02-16T12:16:21.285Z,8.50
2018-02-16T12:18:49.551Z,7.90
2018-02-16T12:21:17.048Z,7.90
2018-02-16T12:23:45.318Z,8.10
2018-02-16T12:26:12.811Z,8.10
2018-02-16T12:28:41.076Z,8.30
2018-02-16T12:31:08.564Z,8.20
2018-02-16T12:33:36.835Z,8.20
2018-02-16T12:36:04.320Z,8.20
2018-02-16T12:38:32.724Z,8.10
2018-02-16T12:41:00.985Z,8.20
2018-02-16T12:43:29.268Z,8.30
2018-02-16T12:45:56.764Z,8.30
2018-02-16T12:48:25.028Z,8.40
2018-02-16T12:50:52.514Z,8.40
2018-02-16T12:53:20.812Z,8.40
2018-02-16T12:55:49.083Z,8.30
2018-02-16T12:58:16.569Z,8.30
2018-02-16T13:00:44.849Z,8.10
2018-02-16T13:03:12.328Z,8.10
2018-02-16T13:05:40.608Z,8.50
2018-02-16T13:08:08.097Z,8.50
2018-02-16T13:10:36.363Z,8.70
2018-02-16T13:13:03.849Z,8.70
2018-02-16T13:15:32.121Z,8.60
2018-02-16T13:18:00.372Z,8.60
2018-02-16T13:20:27.885Z,8.60
2018-02-16T13:22:55.381Z,8.50
2018-02-16T13:25:22.897Z,8.50
2018-02-16T13:27:50.384Z,8.50
2018-02-16T13:30:18.613Z,8.60
2018-02-16T13:32:46.101Z,8.60
2018-02-16T13:35:13.593Z,8.50
2018-02-16T13:37:41.099Z,8.60
2018-02-16T13:40:09.351Z,8.50
2018-02-16T13:42:36.856Z,8.50
2018-02-16T13:45:04.355Z,8.50
2018-02-16T13:47:31.865Z,8.40
2018-02-16T13:49:59.520Z,8.40
2018-02-16T13:52:27.013Z,8.40
2018-02-16T13:54:54.513Z,8.40
2018-02-16T13:57:22.784Z,8.40
2018-02-16T13:59:50.301Z,8.40
2018-02-16T14:02:17.873Z,8.40
2018-02-16T14:04:45.356Z,8.40
2018-02-16T14:07:12.914Z,8.40
2018-02-16T14:09:40.401Z,8.40
2018-02-16T14:12:07.896Z,8.40
2018-02-16T14:14:35.398Z,8.40
2018-02-16T14:17:02.880Z,8.30
2018-02-16T14:19:31.144Z,8.40
2018-02-16T14:21:58.633Z,8.30
2018-02-16T14:24:26.905Z,8.30
2018-02-16T14:26:54.571Z,8.30
2018-02-16T14:29:22.779Z,8.30
2018-02-16T14:31:51.035Z,8.20
2018-02-16T14:34:18.546Z,8.10
2018-02-16T14:36:46.801Z,7.90
2018-02-16T14:39:14.299Z,7.90
2018-02-16T14:41:41.784Z,7.90
2018-02-16T14:44:10.072Z,8.00
2018-02-16T14:46:37.569Z,8.00
2018-02-16T14:49:05.071Z,8.10
2018-02-16T14:51:32.555Z,8.10
2018-02-16T14:54:00.170Z,8.20
2018-02-16T14:56:27.656Z,8.20
2018-02-16T14:58:55.182Z,8.30
2018-02-16T15:01:22.668Z,8.40
2018-02-16T15:03:50.922Z,8.40
2018-02-16T15:06:18.446Z,8.40
2018-02-16T15:08:45.936Z,8.30
2018-02-16T15:11:13.427Z,8.20
2018-02-16T15:13:40.912Z,8.20
2018-02-16T15:16:08.414Z,8.10
2018-02-16T15:18:36.660Z,8.00
2018-02-16T15:21:04.259Z,8.00
2018-02-16T15:23:31.743Z,7.90
2018-02-16T15:26:00.089Z,7.90
2018-02-16T15:28:27.592Z,7.90
2018-02-16T15:30:55.893Z,7.80
2018-02-16T15:33:24.152Z,7.70
2018-02-16T15:35:51.666Z,7.70
2018-02-16T15:38:19.152Z,7.60
2018-02-16T15:40:46.648Z,7.50
2018-02-16T15:43:14.152Z,7.50
2018-02-16T15:45:42.401Z,7.30
2018-02-16T15:48:09.912Z,7.30
2018-02-16T15:50:38.170Z,7.20
2018-02-16T15:53:05.681Z,7.20
2018-02-16T15:55:33.931Z,7.10
2018-02-16T15:58:01.440Z,7.00
2018-02-16T16:00:29.688Z,6.80
2018-02-16T16:02:57.210Z,6.80
2018-02-16T16:05:24.696Z,6.70
2018-02-16T16:07:52.233Z,6.60
2018-02-16T16:10:20.521Z,6.40
2018-02-16T16:12:47.987Z,6.40
2018-02-16T16:15:16.259Z,6.30
2018-02-16T16:17:43.743Z,6.30
2018-02-16T16:20:11.244Z,6.10
2018-02-16T16:22:38.732Z,6.10
2018-02-16T16:25:06.241Z,6.00
2018-02-16T16:27:33.733Z,5.80
2018-02-16T16:30:02.022Z,5.50
2018-02-16T16:32:30.271Z,5.40
2018-02-16T16:34:57.791Z,5.40
2018-02-16T16:37:26.052Z,5.20
2018-02-16T16:39:53.580Z,5.10
2018-02-16T16:42:21.077Z,5.00
2018-02-16T16:44:48.605Z,4.80
2018-02-16T16:47:16.108Z,4.70
2018-02-16T16:49:43.620Z,4.60
2018-02-16T16:52:11.880Z,4.20
2018-02-16T16:54:39.401Z,4.20
2018-02-16T16:57:06.897Z,4.10
2018-02-16T16:59:34.417Z,4.00
2018-02-16T17:02:01.913Z,4.00
2018-02-16T17:04:29.404Z,3.90
2018-02-16T17:06:57.271Z,3.80
2018-02-16T17:09:24.937Z,3.70
2018-02-16T17:11:52.494Z,3.60
2018-02-16T17:14:20.755Z,3.30
2018-02-16T17:16:48.268Z,3.20
2018-02-16T17:19:15.761Z,3.10
2018-02-16T17:21:43.272Z,3.00
2018-02-16T17:24:10.759Z,2.90
2018-02-16T17:26:39.036Z,2.80
2018-02-16T17:29:06.525Z,2.70
2018-02-16T17:31:34.816Z,2.50
2018-02-16T17:34:03.071Z,2.60
2018-02-16T17:36:30.559Z,2.60
2018-02-16T17:38:58.073Z,2.70
2018-02-16T17:41:25.561Z,2.60
2018-02-16T17:43:53.073Z,2.40
2018-02-16T17:46:20.556Z,2.20
2018-02-16T17:48:48.827Z,2.10
2018-02-16T17:51:16.322Z,2.10
2018-02-16T17:53:43.878Z,2.10
2018-02-16T17:56:11.340Z,2.00
2018-02-16T17:58:38.861Z,1.90
2018-02-16T18:01:06.351Z,1.90
2018-02-16T18:03:33.873Z,1.80
2018-02-16T18:06:02.144Z,1.70
2018-02-16T18:08:29.657Z,1.70
2018-02-16T18:10:57.161Z,1.70
2018-02-16T18:13:24.684Z,1.60
2018-02-16T18:15:52.215Z,1.50
2018-02-16T18:18:19.696Z,1.40
2018-02-16T18:20:47.212Z,1.30
2018-02-16T18:23:14.709Z,1.20
2018-02-16T18:25:42.215Z,1.10
2018-02-16T18:28:10.475Z,1.20
2018-02-16T18:30:37.979Z,1.20
2018-02-16T18:33:06.249Z,1.10
2018-02-16T18:35:33.780Z,1.10
2018-02-16T18:38:01.290Z,1.10
2018-02-16T18:40:28.806Z,1.00
2018-02-16T18:42:56.300Z,0.90
2018-02-16T18:45:23.837Z,0.90
2018-02-16T18:47:51.388Z,0.80
2018-02-16T18:50:18.892Z,0.90
2018-02-16T18:52:46.403Z,1.00
2018-02-16T18:55:14.035Z,0.90
2018-02-16T18:57:41.552Z,0.90
2018-02-16T19:00:09.052Z,0.80
2018-02-16T19:02:37.337Z,0.60
2018-02-16T19:05:04.856Z,0.60
2018-02-16T19:07:32.377Z,0.50
2018-02-16T19:10:00.651Z,0.50
2018-02-16T19:12:28.291Z,0.50
2018-02-16T19:14:55.853Z,0.60
2018-02-16T19:17:23.375Z,0.50
2018-02-16T19:19:50.872Z,0.50
2018-02-16T19:22:18.394Z,0.40
2018-02-16T19:24:46.088Z,0.50
2018-02-16T19:27:13.632Z,0.50
2018-02-16T19:29:41.125Z,0.40
2018-02-16T19:32:08.899Z,0.30
2018-02-16T19:34:36.450Z,0.30
2018-02-16T19:37:03.977Z,0.20
2018-02-16T19:39:31.485Z,0.10
2018-02-16T19:42:00.543Z,0.00
2018-02-16T19:44:28.812Z,0.00
2018-02-16T19:46:56.340Z,0.00
2018-02-16T19:49:23.841Z,0.00
2018-02-16T19:51:51.361Z,0.00
2018-02-16T19:54:18.869Z,0.00
2018-02-16T19:56:46.396Z,0.30
2018-02-16T19:59:15.195Z,0.40
2018-02-16T20:01:43.565Z,0.40
2018-02-16T20:04:11.086Z,0.40
2018-02-16T20:06:38.603Z,0.30
2018-02-16T20:09:06.102Z,0.20
2018-02-16T20:11:33.685Z,0.10
2018-02-16T20:14:02.265Z,0.00
2018-02-16T20:16:30.621Z,0.10
2018-02-16T20:18:58.294Z,0.10
2018-02-16T20:21:25.902Z,0.00
2018-02-16T20:23:54.523Z,-0.20
2018-02-16T20:26:22.355Z,-0.20
2018-02-16T20:28:49.957Z,-0.30
2018-02-16T20:31:18.311Z,-0.50
2018-02-16T20:33:45.840Z,-0.50
2018-02-16T20:36:13.339Z,-0.50
2018-02-16T20:38:41.045Z,-0.50
2018-02-16T20:41:08.874Z,-0.60
2018-02-16T20:43:36.542Z,-0.60
2018-02-16T20:46:04.520Z,-0.60
2018-02-16T20:48:32.090Z,-0.70
2018-02-16T20:50:59.597Z,-0.60
2018-02-16T20:53:27.162Z,-0.50
2018-02-16T20:55:54.677Z,-0.30
2018-02-16T20:58:22.973Z,-0.30
2018-02-16T21:00:51.276Z,-0.30
2018-02-16T21:03:18.816Z,-0.30
2018-02-16T21:05:46.307Z,-0.40
2018-02-16T21:08:14.574Z,-0.30
2018-02-16T21:10:42.093Z,-0.30
2018-02-16T21:13:09.604Z,-0.30
2018-02-16T21:15:37.121Z,-0.50
2018-02-16T21:18:04.622Z,-0.50
2018-02-16T21:20:32.903Z,-0.30
2018-02-16T21:23:00.400Z,-0.40
2018-02-16T21:25:27.923Z,-0.30
2018-02-16T21:27:55.425Z,-0.20
2018-02-16T21:30:22.935Z,-0.20
2018-02-16T21:32:50.433Z,-0.10
2018-02-16T21:35:17.945Z,0.00
2018-02-16T21:37:45.440Z,0.00
2018-02-16T21:40:12.960Z,0.00
2018-02-16T21:42:40.456Z,0.10
2018-02-16T21:45:07.956Z,0.10
2018-02-16T21:47:35.477Z,0.00
2018-02-16T21:50:02.977Z,0.00
2018-02-16T21:52:30.489Z,0.00
2018-02-16T21:54:58.798Z,0.20
2018-02-16T21:57:26.348Z,0.20
2018-02-16T21:59:54.642Z,0.30
2018-02-16T22:02:22.933Z,0.20
2018-02-16T22:04:51.193Z,0.20
2018-02-16T22:07:19.504Z,0.10
2018-02-16T22:09:47.764Z,0.10
2018-02-16T22:12:15.268Z,0.10
2018-02-16T22:14:43.552Z,0.00
2018-02-16T22:17:11.825Z,-0.10
2018-02-16T22:19:39.348Z,-0.10
2018-02-16T22:22:06.849Z,0.00
2018-02-16T22:24:34.370Z,0.00
2018-02-16T22:27:01.870Z,0.00
2018-02-16T22:29:29.383Z,0.10
2018-02-16T22:31:56.876Z,0.10
2018-02-16T22:34:24.392Z,0.10
2018-02-16T22:36:51.883Z,0.00
2018-02-16T22:39:19.409Z,0.00
2018-02-16T22:41:47.821Z,0.10
2018-02-16T22:44:15.337Z,0.00
2018-02-16T22:46:43.631Z,0.10
2018-02-16T22:49:11.144Z,0.00
2018-02-16T22:51:38.661Z,0.10
2018-02-16T22:54:06.927Z,0.20
2018-02-16T22:56:34.441Z,0.20
2018-02-16T22:59:02.749Z,0.20
2018-02-16T23:01:31.010Z,0.20
2018-02-16T23:03:59.289Z,0.20
2018-02-16T23:06:27.568Z,0.30
2018-02-16T23:08:55.064Z,0.30
2018-02-16T23:11:23.349Z,0.40
2018-02-16T23:13:51.612Z,0.40
2018-02-16T23:16:19.132Z,0.30
2018-02-16T23:18:46.632Z,0.40
2018-02-16T23:21:14.165Z,0.30
2018-02-16T23:23:41.656Z,0.30
2018-02-16T23:26:09.157Z,0.30
2018-02-16T23:28:36.672Z,0.40
2018-02-16T23:31:04.169Z,0.40
2018-02-16T23:33:31.683Z,0.30
2018-02-16T23:35:59.185Z,0.30
2018-02-16T23:38:26.709Z,0.30
2018-02-16T23:40:54.205Z,0.40
2018-02-16T23:43:21.670Z,0.50
2018-02-16T23:45:49.174Z,0.40
2018-02-16T23:48:16.693Z,0.50
2018-02-16T23:50:44.201Z,0.50
2018-02-16T23:53:11.729Z,0.50
2018-02-16T23:55:40.002Z,0.60
2018-02-16T23:58:08.273Z,0.60
